createdAt,value
2022-09-01T00:04:52.461Z,6.97
2022-09-01T00:15:00.366Z,6.21
2022-09-01T00:25:08.359Z,5.03
2022-09-01T00:35:16.227Z,3.36
2022-09-01T00:45:23.697Z,4.85
2022-09-01T00:55:32.547Z,8.69
2022-09-01T01:05:38.617Z,5.49
2022-09-01T01:15:46.494Z,3.5
2022-09-01T01:25:54.449Z,5.49
2022-09-01T01:36:02.242Z,3.45
2022-09-01T01:46:10.219Z,3.29
2022-09-01T01:56:18.106Z,4.67
2022-09-01T02:06:26.086Z,3.18
2022-09-01T02:16:33.979Z,3.4
2022-09-01T02:26:41.701Z,5.74
2022-09-01T02:36:49.689Z,8.02
2022-09-01T02:46:57.208Z,7.45
2022-09-01T02:57:05.222Z,7.11
2022-09-01T03:07:13.192Z,7.58
2022-09-01T03:17:21.248Z,6.65
2022-09-01T03:27:29.218Z,6.42
2022-09-01T03:37:37.178Z,8.84
2022-09-01T03:47:45.120Z,8.75
2022-09-01T03:57:53.200Z,7.66
2022-09-01T04:08:01.171Z,7.41
2022-09-01T04:18:09.114Z,5.8
2022-09-01T04:28:17.106Z,7.62
2022-09-01T04:38:27.555Z,6.52
2022-09-01T04:48:24.948Z,8.23
2022-09-01T04:58:32.253Z,6.45
2022-09-01T05:08:40.789Z,9.58
2022-09-01T05:18:48.369Z,8.93
2022-09-01T05:28:56.987Z,9.26
2022-09-01T05:39:05.493Z,7.26
2022-09-01T05:49:13.932Z,7.15
2022-09-01T05:59:23.654Z,7.99
2022-09-01T06:09:28.764Z,7.79
2022-09-01T06:19:37.105Z,9.64
2022-09-01T06:29:44.530Z,8.13
2022-09-01T06:39:53.107Z,13.75
2022-09-01T06:50:00.771Z,7.41
2022-09-01T07:00:08.486Z,8.99
2022-09-01T07:10:21.173Z,9.74
2022-09-01T07:20:24.079Z,7.92
2022-09-01T07:30:30.704Z,10.01
2022-09-01T08:00:54.652Z,9.17
2022-09-01T08:11:05.489Z,9.44
2022-09-01T08:21:11.874Z,10.32
2022-09-01T08:31:20.489Z,7.75
2022-09-01T08:41:28.744Z,8.13
2022-09-01T08:51:35.854Z,5.29
2022-09-01T09:21:48.627Z,9.94
2022-09-01T09:31:58.309Z,6.69
2022-09-01T09:42:06.394Z,10.08
2022-09-01T09:52:16.363Z,7.25
2022-09-01T10:02:25.005Z,9.66
2022-09-01T10:12:30.339Z,5.3
2022-09-01T10:22:38.617Z,5
2022-09-01T10:32:49.363Z,5.18
2022-09-01T10:42:53.756Z,8.61
2022-09-01T10:53:04.688Z,6.72
2022-09-01T11:03:30.674Z,5.46
2022-09-01T11:13:18.388Z,5.45
2022-09-01T11:23:27.534Z,8.55
2022-09-01T11:33:36.737Z,6.84
2022-09-01T11:43:44.898Z,7.47
2022-09-01T11:53:53.420Z,5.86
2022-09-01T12:04:02.202Z,6.42
2022-09-01T12:14:11.490Z,6.94
2022-09-01T12:24:18.078Z,7.61
2022-09-01T12:34:26.679Z,7.6
2022-09-01T12:44:35.364Z,9.05
2022-09-01T12:54:44.000Z,9.11
2022-09-01T13:04:52.938Z,6.64
2022-09-01T13:15:01.755Z,8.62
2022-09-01T13:25:10.506Z,6.55
2022-09-01T13:35:20.405Z,7.51
2022-09-01T13:45:29.277Z,7.34
2022-09-01T13:55:37.965Z,8.04
2022-09-01T14:05:46.685Z,7.65
2022-09-01T14:15:54.751Z,6.68
2022-09-01T14:26:02.936Z,8.07
2022-09-01T14:36:14.949Z,7.29
2022-09-01T14:46:19.673Z,8.95
2022-09-01T14:56:31.608Z,8.27
2022-09-01T15:06:32.384Z,7.09
2022-09-01T15:16:33.892Z,9.01
2022-09-01T15:26:39.749Z,6.65
2022-09-01T15:36:35.332Z,8.82
2022-09-01T15:46:40.495Z,7.95
2022-09-01T15:56:40.457Z,8.51
2022-09-01T16:06:43.865Z,6.94
2022-09-01T16:16:48.365Z,7.86
2022-09-01T16:27:16.120Z,6.8
2022-09-01T16:36:53.947Z,8.05
2022-09-01T16:46:57.226Z,7.57
2022-09-01T16:57:06.500Z,6.99
2022-09-01T17:07:14.474Z,9.81
2022-09-01T17:17:23.927Z,8.3
2022-09-01T17:27:32.362Z,7.61
2022-09-01T17:37:40.683Z,6.36
2022-09-01T17:47:52.977Z,8.22
2022-09-01T17:57:53.008Z,9.07
2022-09-01T18:08:01.426Z,6.99
2022-09-01T18:28:12.149Z,7.16
2022-09-01T18:38:23.047Z,7.4
2022-09-01T18:48:38.227Z,8.66
2022-09-01T18:58:30.008Z,8.15
2022-09-01T19:08:31.772Z,9.15
2022-09-01T19:18:33.830Z,8.94
2022-09-01T19:28:35.610Z,9.21
2022-09-01T19:38:35.209Z,8.95
2022-09-01T20:08:49.573Z,12.66
2022-09-01T20:18:51.519Z,13.7
2022-09-01T20:28:58.643Z,11.88
2022-09-01T20:39:06.576Z,11.21
2022-09-01T20:49:14.287Z,9.67
2022-09-01T20:59:22.369Z,10.03
2022-09-01T21:09:30.443Z,10.51
2022-09-01T21:19:44.425Z,11.73
2022-09-01T21:29:42.508Z,11.99
2022-09-01T21:39:50.526Z,11.56
2022-09-01T21:49:58.640Z,12.99
2022-09-01T22:00:06.682Z,13.34
2022-09-01T22:10:14.790Z,13.29
2022-09-01T22:20:22.985Z,16.47
2022-09-01T22:30:31.254Z,15.96
2022-09-01T22:40:39.522Z,12.06
2022-09-01T22:50:47.724Z,11.93
2022-09-01T23:00:55.948Z,13.02
2022-09-01T23:11:04.142Z,12.68
2022-09-01T23:21:17.475Z,12.62
2022-09-01T23:31:13.431Z,14.21
2022-09-01T23:41:21.614Z,13.25
2022-09-01T23:51:29.752Z,12.45
